createdAt,value
2023-01-21T00:01:04.501Z,101855.94
2023-01-21T00:03:31.098Z,101853.03
2023-01-21T00:06:01.384Z,101856.44
2023-01-21T00:08:27.981Z,101865.47
2023-01-21T00:10:54.900Z,101868.69
2023-01-21T00:13:21.498Z,101871.78
2023-01-21T00:15:47.923Z,101878.78
2023-01-21T00:18:14.330Z,101877.16
2023-01-21T00:20:40.860Z,101885.50
2023-01-21T00:23:07.285Z,101879.97
2023-01-21T00:25:33.642Z,101882.34
2023-01-21T00:28:00.231Z,101892.16
2023-01-21T00:30:26.947Z,101904.00
2023-01-21T00:32:53.333Z,101894.16
2023-01-21T00:35:20.001Z,101901.47
2023-01-21T00:37:46.351Z,101909.94
2023-01-21T00:40:13.103Z,101915.50
2023-01-21T00:42:39.546Z,101908.06
2023-01-21T00:45:06.615Z,101913.09
2023-01-21T00:47:33.082Z,101918.34
2023-01-21T00:49:59.447Z,101922.88
2023-01-21T00:52:25.904Z,101927.97
2023-01-21T00:54:52.412Z,101929.72
2023-01-21T00:57:18.792Z,101935.34
2023-01-21T00:59:45.532Z,101942.63
2023-01-21T01:02:12.009Z,101947.97
2023-01-21T01:04:38.557Z,101946.13
2023-01-21T01:07:05.035Z,101950.38
2023-01-21T01:09:31.423Z,101958.94
2023-01-21T01:11:58.300Z,101960.63
2023-01-21T01:14:24.766Z,101961.31
2023-01-21T01:16:51.084Z,101956.41
2023-01-21T01:19:17.710Z,101964.00
2023-01-21T01:21:44.135Z,101979.88
2023-01-21T01:24:10.631Z,101972.00
2023-01-21T01:26:37.027Z,101986.97
2023-01-21T01:29:06.853Z,101983.09
2023-01-21T01:31:33.447Z,101981.41
2023-01-21T01:33:59.802Z,101992.41
2023-01-21T01:36:26.332Z,101994.31
2023-01-21T01:38:53.995Z,102004.00
2023-01-21T01:41:27.279Z,102006.94
2023-01-21T01:44:01.647Z,102022.09
2023-01-21T01:46:30.934Z,102017.34
2023-01-21T01:49:14.762Z,102019.03
2023-01-21T01:51:48.863Z,102026.66
2023-01-21T01:54:23.168Z,102031.44
2023-01-21T01:56:55.274Z,102031.69
2023-01-21T01:59:21.920Z,102043.47
2023-01-21T02:01:48.863Z,102034.63
2023-01-21T02:04:22.327Z,102043.72
2023-01-21T02:06:52.173Z,102055.78
2023-01-21T02:09:18.802Z,102057.63
2023-01-21T02:11:46.464Z,102065.09
2023-01-21T02:14:13.003Z,102060.31
2023-01-21T02:16:42.449Z,102069.88
2023-01-21T02:19:46.194Z,102071.88
2023-01-21T02:22:21.553Z,102063.28
2023-01-21T02:24:54.053Z,102076.22
2023-01-21T02:27:30.680Z,102070.59
2023-01-21T02:30:23.675Z,102077.91
2023-01-21T02:33:14.891Z,102094.34
2023-01-21T02:36:00.160Z,102094.34
2023-01-21T02:38:32.320Z,102088.03
2023-01-21T02:41:21.693Z,102096.31
2023-01-21T02:44:11.153Z,102098.84
2023-01-21T02:46:44.880Z,102098.28
2023-01-21T02:49:35.029Z,102098.00
2023-01-21T02:52:01.493Z,102101.09
2023-01-21T02:54:39.725Z,102103.22
2023-01-21T02:57:09.319Z,102103.91
2023-01-21T02:59:37.326Z,102103.09
2023-01-21T03:02:11.359Z,102099.41
2023-01-21T03:05:04.906Z,102108.94
2023-01-21T03:07:36.234Z,102113.19
2023-01-21T03:10:10.452Z,102114.84
2023-01-21T03:12:56.104Z,102115.97
2023-01-21T03:15:51.946Z,102115.97
2023-01-21T03:18:28.101Z,102110.06
2023-01-21T03:21:03.335Z,102113.56
2023-01-21T03:23:35.908Z,102119.59
2023-01-21T03:26:04.578Z,102117.38
2023-01-21T03:28:36.207Z,102123.28
2023-01-21T03:31:09.451Z,102124.53
2023-01-21T03:33:40.083Z,102126.38
2023-01-21T03:36:14.899Z,102131.16
2023-01-21T03:38:47.924Z,102126.38
2023-01-21T03:41:21.414Z,102127.22
2023-01-21T03:43:48.375Z,102132.84
2023-01-21T03:46:26.831Z,102131.19
2023-01-21T03:49:22.648Z,102128.91
2023-01-21T03:51:54.537Z,102140.41
2023-01-21T03:54:22.486Z,102144.91
2023-01-21T03:56:48.872Z,102148.84
2023-01-21T03:59:15.249Z,102155.88
2023-01-21T04:01:41.798Z,102160.09
2023-01-21T04:04:09.546Z,102159.09
2023-01-21T04:06:39.186Z,102156.56
2023-01-21T04:09:11.024Z,102165.69
2023-01-21T04:11:37.358Z,102168.63
2023-01-21T04:14:03.748Z,102164.72
2023-01-21T04:16:30.717Z,102170.75
2023-01-21T04:18:57.130Z,102169.34
2023-01-21T04:21:23.510Z,102172.72
2023-01-21T04:23:49.938Z,102172.47
2023-01-21T04:26:16.441Z,102179.03
2023-01-21T04:28:43.024Z,102186.22
2023-01-21T04:31:09.504Z,102183.41
2023-01-21T04:33:35.947Z,102189.56
2023-01-21T04:36:02.394Z,102185.63
2023-01-21T04:38:28.994Z,102191.78
2023-01-21T04:40:55.336Z,102197.13
2023-01-21T04:43:21.819Z,102196.97
2023-01-21T04:45:50.247Z,102207.22
2023-01-21T04:48:18.019Z,102212.44
2023-01-21T04:50:46.319Z,102203.88
2023-01-21T04:53:12.885Z,102203.88
2023-01-21T04:55:39.276Z,102210.88
2023-01-21T04:58:05.971Z,102214.00
2023-01-21T05:00:32.426Z,102218.50
2023-01-21T05:02:58.828Z,102216.75
2023-01-21T05:05:25.256Z,102213.28
2023-01-21T05:07:54.885Z,102218.47
2023-01-21T05:10:21.549Z,102220.44
2023-01-21T05:12:48.595Z,102222.94
2023-01-21T05:15:15.268Z,102227.97
2023-01-21T05:17:41.657Z,102229.09
2023-01-21T05:20:08.683Z,102235.81
2023-01-21T05:22:35.206Z,102240.56
2023-01-21T05:25:01.675Z,102238.19
2023-01-21T05:27:28.386Z,102236.34
2023-01-21T05:29:55.026Z,102244.53
2023-01-21T05:32:21.464Z,102251.53
2023-01-21T05:34:47.888Z,102249.56
2023-01-21T05:37:14.624Z,102255.19
2023-01-21T05:39:41.245Z,102253.38
2023-01-21T05:42:07.856Z,102259.13
2023-01-21T05:44:34.269Z,102255.88
2023-01-21T05:47:00.606Z,102261.94
2023-01-21T05:49:27.052Z,102270.66
2023-01-21T05:51:53.574Z,102259.66
2023-01-21T05:54:19.938Z,102267.31
2023-01-21T05:56:46.380Z,102272.28
2023-01-21T05:59:13.063Z,102277.84
2023-01-21T06:01:39.384Z,102279.06
2023-01-21T06:04:05.710Z,102286.91
2023-01-21T06:06:32.217Z,102297.03
2023-01-21T06:08:58.845Z,102294.50
2023-01-21T06:11:25.463Z,102296.63
2023-01-21T06:13:51.793Z,102308.00
2023-01-21T06:16:18.361Z,102311.38
2023-01-21T06:18:44.724Z,102313.06
2023-01-21T06:21:11.083Z,102321.09
2023-01-21T06:23:37.497Z,102322.34
2023-01-21T06:26:04.039Z,102327.13
2023-01-21T06:28:30.727Z,102322.09
2023-01-21T06:30:57.253Z,102331.41
2023-01-21T06:33:23.826Z,102332.06
2023-01-21T06:35:50.298Z,102332.34
2023-01-21T06:38:16.633Z,102332.34
2023-01-21T06:40:43.723Z,102342.22
2023-01-21T06:43:10.163Z,102343.09
2023-01-21T06:45:36.517Z,102343.66
2023-01-21T06:48:03.035Z,102352.16
2023-01-21T06:50:29.506Z,102351.28
2023-01-21T06:52:55.884Z,102358.69
2023-01-21T06:55:22.290Z,102358.38
2023-01-21T06:57:48.790Z,102357.84
2023-01-21T07:00:15.768Z,102355.59
2023-01-21T07:02:42.415Z,102357.84
2023-01-21T07:05:09.006Z,102368.25
2023-01-21T07:07:35.854Z,102363.19
2023-01-21T07:10:02.313Z,102365.06
2023-01-21T07:12:28.679Z,102372.34
2023-01-21T07:14:55.165Z,102378.94
2023-01-21T07:17:23.015Z,102371.66
2023-01-21T07:19:49.376Z,102383.22
2023-01-21T07:22:16.266Z,102371.75
2023-01-21T07:24:42.645Z,102374.72
2023-01-21T07:27:09.383Z,102382.75
2023-01-21T07:29:35.820Z,102384.28
2023-01-21T07:32:02.654Z,102391.16
2023-01-21T07:34:29.170Z,102394.72
2023-01-21T07:36:55.682Z,102405.50
2023-01-21T07:39:22.195Z,102397.84
2023-01-21T07:41:48.594Z,102415.53
2023-01-21T07:44:14.971Z,102416.25
2023-01-21T07:46:41.432Z,102415.69
2023-01-21T07:49:07.806Z,102421.44
2023-01-21T07:51:34.373Z,102418.91
2023-01-21T07:54:00.779Z,102429.47
2023-01-21T07:56:27.293Z,102434.06
2023-01-21T07:58:53.870Z,102432.25
2023-01-21T08:01:20.325Z,102434.06
2023-01-21T08:03:46.724Z,102436.50
2023-01-21T08:06:13.194Z,102437.22
2023-01-21T08:08:39.543Z,102438.63
2023-01-21T08:11:05.917Z,102439.47
2023-01-21T08:13:32.372Z,102439.53
2023-01-21T08:15:58.841Z,102440.31
2023-01-21T08:18:25.445Z,102445.00
2023-01-21T08:20:59.079Z,102449.09
2023-01-21T08:23:26.655Z,102450.47
2023-01-21T08:25:53.500Z,102447.78
2023-01-21T08:28:20.031Z,102452.88
2023-01-21T08:30:46.457Z,102456.00
2023-01-21T08:33:14.595Z,102457.69
2023-01-21T08:35:41.010Z,102459.56
2023-01-21T08:38:07.362Z,102462.97
2023-01-21T08:40:33.817Z,102462.56
2023-01-21T08:43:02.207Z,102470.91
2023-01-21T08:45:29.111Z,102479.34
2023-01-21T08:47:55.631Z,102487.81
2023-01-21T08:50:22.917Z,102481.94
2023-01-21T08:52:53.878Z,102488.09
2023-01-21T08:55:21.323Z,102491.19
2023-01-21T08:57:52.020Z,102497.09
2023-01-21T09:00:19.478Z,102496.94
2023-01-21T09:02:45.811Z,102493.50
2023-01-21T09:05:12.318Z,102506.66
2023-01-21T09:07:38.729Z,102502.16
2023-01-21T09:10:05.844Z,102511.47
2023-01-21T09:12:33.085Z,102508.09
2023-01-21T09:14:59.554Z,102514.22
2023-01-21T09:17:26.381Z,102519.03
2023-01-21T09:19:55.284Z,102525.53
2023-01-21T09:22:21.887Z,102527.06
2023-01-21T09:24:48.274Z,102528.38
2023-01-21T09:27:14.760Z,102540.19
2023-01-21T09:29:41.616Z,102537.19
2023-01-21T09:32:08.076Z,102538.69
2023-01-21T09:34:35.800Z,102537.97
2023-01-21T09:37:03.007Z,102532.00
2023-01-21T09:39:29.416Z,102541.81
2023-01-21T09:41:56.883Z,102536.16
2023-01-21T09:44:44.696Z,102536.41
2023-01-21T09:47:21.243Z,102546.31
2023-01-21T09:49:51.445Z,102549.56
2023-01-21T09:52:37.169Z,102551.38
2023-01-21T09:55:05.665Z,102554.63
2023-01-21T09:57:47.626Z,102557.41
2023-01-21T10:00:19.705Z,102563.13
2023-01-21T10:03:06.912Z,102563.47
2023-01-21T10:05:39.330Z,102562.88
2023-01-21T10:08:17.938Z,102564.69
2023-01-21T10:10:51.715Z,102563.22
2023-01-21T10:13:26.928Z,102558.00
2023-01-21T10:16:04.234Z,102560.47
2023-01-21T10:18:34.735Z,102561.41
2023-01-21T10:21:16.732Z,102558.16
2023-01-21T10:23:52.227Z,102563.25
2023-01-21T10:26:18.579Z,102571.25
2023-01-21T10:28:50.382Z,102564.50
2023-01-21T10:31:30.356Z,102559.41
2023-01-21T10:33:56.831Z,102560.84
2023-01-21T10:36:29.142Z,102557.06
2023-01-21T10:39:25.592Z,102570.28
2023-01-21T10:42:10.964Z,102563.00
2023-01-21T10:44:49.721Z,102567.53
2023-01-21T10:47:44.487Z,102559.06
2023-01-21T10:50:30.071Z,102563.97
2023-01-21T10:53:10.495Z,102565.44
2023-01-21T10:55:52.100Z,102579.47
2023-01-21T10:58:33.666Z,102576.34
2023-01-21T11:01:04.392Z,102574.91
2023-01-21T11:03:50.201Z,102572.03
2023-01-21T11:06:18.916Z,102576.81
2023-01-21T11:08:48.587Z,102566.84
2023-01-21T11:11:18.632Z,102566.84
2023-01-21T11:13:45.008Z,102574.06
2023-01-21T11:16:11.498Z,102567.78
2023-01-21T11:18:41.447Z,102569.72
2023-01-21T11:21:19.231Z,102569.84
2023-01-21T11:23:56.375Z,102567.50
2023-01-21T11:26:31.587Z,102566.41
2023-01-21T11:29:18.982Z,102570.88
2023-01-21T11:31:48.846Z,102574.59
2023-01-21T11:34:18.810Z,102568.69
2023-01-21T11:37:03.345Z,102571.47
2023-01-21T11:39:36.424Z,102580.47
2023-01-21T11:42:12.557Z,102572.06
2023-01-21T11:45:19.490Z,102575.56
2023-01-21T11:47:50.514Z,102570.38
2023-01-21T11:50:17.233Z,102565.75
2023-01-21T11:52:44.016Z,102564.53
2023-01-21T11:55:23.618Z,102556.69
2023-01-21T11:57:53.593Z,102559.53
2023-01-21T12:00:23.413Z,102555.38
2023-01-21T12:03:02.145Z,102555.22
2023-01-21T12:05:43.001Z,102547.53
2023-01-21T12:08:23.174Z,102542.50
2023-01-21T12:10:52.144Z,102543.34
2023-01-21T12:13:35.388Z,102536.63
2023-01-21T12:16:14.020Z,102536.22
2023-01-21T12:19:05.457Z,102534.28
2023-01-21T12:21:50.309Z,102530.22
2023-01-21T12:24:35.551Z,102524.16
2023-01-21T12:27:34.329Z,102530.34
2023-01-21T12:30:47.081Z,102538.03
2023-01-21T12:33:19.773Z,102533.94
2023-01-21T12:35:54.597Z,102535.53
2023-01-21T12:38:27.883Z,102531.72
2023-01-21T12:41:08.586Z,102523.59
2023-01-21T12:43:45.289Z,102525.84
2023-01-21T12:46:22.170Z,102530.59
2023-01-21T12:49:12.470Z,102536.91
2023-01-21T12:51:43.217Z,102534.75
2023-01-21T12:54:50.509Z,102543.91
2023-01-21T12:57:46.045Z,102546.28
2023-01-21T13:00:24.432Z,102535.88
2023-01-21T13:03:06.031Z,102541.50
2023-01-21T13:05:44.345Z,102541.47
2023-01-21T13:08:40.011Z,102552.50
2023-01-21T13:11:19.417Z,102553.91
2023-01-21T13:14:01.346Z,102550.50
2023-01-21T13:16:29.065Z,102546.22
2023-01-21T13:18:56.562Z,102546.53
2023-01-21T13:21:29.162Z,102554.16
2023-01-21T13:24:11.311Z,102546.69
2023-01-21T13:26:40.565Z,102546.81
2023-01-21T13:29:23.546Z,102543.31
2023-01-21T13:32:14.698Z,102546.59
2023-01-21T13:34:57.411Z,102552.94
2023-01-21T13:37:56.265Z,102558.97
2023-01-21T13:40:52.327Z,102570.97
2023-01-21T13:43:27.995Z,102574.53
2023-01-21T13:46:07.520Z,102571.09
2023-01-21T13:48:36.912Z,102566.63
2023-01-21T13:51:15.602Z,102580.16
2023-01-21T13:54:04.349Z,102588.03
2023-01-21T13:56:43.058Z,102585.19
2023-01-21T13:59:18.971Z,102584.81
2023-01-21T14:01:51.526Z,102584.66
2023-01-21T14:04:41.133Z,102593.41
2023-01-21T14:07:28.501Z,102589.47
2023-01-21T14:10:01.088Z,102599.06
2023-01-21T14:12:46.375Z,102596.81
2023-01-21T14:15:31.527Z,102603.44
2023-01-21T14:18:16.254Z,102597.22
2023-01-21T14:21:21.042Z,102601.34
2023-01-21T14:24:40.441Z,102594.59
2023-01-21T14:27:19.727Z,102604.03
2023-01-21T14:29:58.858Z,102592.88
2023-01-21T14:32:35.842Z,102605.69
2023-01-21T14:35:28.237Z,102601.03
2023-01-21T14:38:36.863Z,102603.00
2023-01-21T14:41:11.948Z,102611.19
2023-01-21T14:43:38.650Z,102604.97
2023-01-21T14:46:22.923Z,102611.19
2023-01-21T14:49:08.232Z,102613.28
2023-01-21T14:51:47.413Z,102608.34
2023-01-21T14:54:17.919Z,102609.19
2023-01-21T14:56:56.856Z,102603.53
2023-01-21T14:59:41.755Z,102608.75
2023-01-21T15:02:30.463Z,102609.19
2023-01-21T15:04:58.748Z,102599.72
2023-01-21T15:07:30.744Z,102606.63
2023-01-21T15:10:00.666Z,102604.25
2023-01-21T15:12:31.251Z,102613.44
2023-01-21T15:15:04.791Z,102609.03
2023-01-21T15:17:53.276Z,102617.06
2023-01-21T15:20:44.793Z,102611.97
2023-01-21T15:23:29.572Z,102609.16
2023-01-21T15:26:11.521Z,102608.88
2023-01-21T15:28:52.149Z,102607.88
2023-01-21T15:31:21.751Z,102607.72
2023-01-21T15:33:52.947Z,102599.22
2023-01-21T15:36:31.233Z,102608.81
2023-01-21T15:39:02.337Z,102613.91
2023-01-21T15:41:43.251Z,102614.25
2023-01-21T15:44:23.631Z,102619.28
2023-01-21T15:47:05.198Z,102622.66
2023-01-21T15:49:43.407Z,102612.53
2023-01-21T15:52:38.099Z,102616.78
2023-01-21T15:55:16.961Z,102615.09
2023-01-21T15:58:06.801Z,102621.16
2023-01-21T16:00:39.583Z,102624.41
2023-01-21T16:03:29.172Z,102625.94
2023-01-21T16:06:23.023Z,102622.56
2023-01-21T16:09:02.988Z,102630.59
2023-01-21T16:11:40.391Z,102629.31
2023-01-21T16:14:26.977Z,102633.97
2023-01-21T16:17:19.948Z,102632.81
2023-01-21T16:19:50.567Z,102639.19
2023-01-21T16:22:25.490Z,102633.97
2023-01-21T16:25:00.658Z,102634.50
2023-01-21T16:27:30.910Z,102627.44
2023-01-21T16:30:03.768Z,102635.25
2023-01-21T16:32:30.867Z,102637.34
2023-01-21T16:34:57.255Z,102630.47
2023-01-21T16:37:25.787Z,102639.91
2023-01-21T16:40:20.620Z,102641.31
2023-01-21T16:42:47.108Z,102632.91
2023-01-21T16:45:18.426Z,102638.53
2023-01-21T16:47:52.810Z,102639.69
2023-01-21T16:50:22.145Z,102632.91
2023-01-21T16:52:49.878Z,102627.09
2023-01-21T16:55:25.890Z,102628.06
2023-01-21T16:57:54.458Z,102624.69
2023-01-21T17:00:31.374Z,102634.31
2023-01-21T17:02:59.289Z,102635.72
2023-01-21T17:05:33.740Z,102636.28
2023-01-21T17:08:04.288Z,102646.56
2023-01-21T17:10:37.674Z,102645.72
2023-01-21T17:13:07.700Z,102642.22
2023-01-21T17:15:40.910Z,102637.25
2023-01-21T17:18:20.882Z,102626.53
2023-01-21T17:20:58.643Z,102628.38
2023-01-21T17:23:29.293Z,102631.31
2023-01-21T17:26:00.452Z,102634.88
2023-01-21T17:28:39.841Z,102629.78
2023-01-21T17:31:15.636Z,102635.69
2023-01-21T17:33:45.440Z,102632.47
2023-01-21T17:36:14.120Z,102638.25
2023-01-21T17:38:42.891Z,102646.81
2023-01-21T17:41:25.760Z,102639.22
2023-01-21T17:43:53.815Z,102651.34
2023-01-21T17:46:22.970Z,102649.50
2023-01-21T17:49:13.686Z,102659.41
2023-01-21T17:51:42.816Z,102653.19
2023-01-21T17:54:21.679Z,102660.53
2023-01-21T17:56:49.935Z,102664.19
2023-01-21T17:59:34.187Z,102662.22
2023-01-21T18:02:11.356Z,102655.31
2023-01-21T18:04:37.955Z,102665.19
2023-01-21T18:07:15.451Z,102671.25
2023-01-21T18:09:42.488Z,102678.28
2023-01-21T18:12:09.729Z,102683.66
2023-01-21T18:14:36.342Z,102689.88
2023-01-21T18:17:04.117Z,102675.47
2023-01-21T18:19:36.858Z,102685.63
2023-01-21T18:22:05.663Z,102683.38
2023-01-21T18:24:32.303Z,102684.22
2023-01-21T18:27:00.795Z,102680.56
2023-01-21T18:29:28.553Z,102680.84
2023-01-21T18:31:55.248Z,102678.88
2023-01-21T18:34:21.676Z,102672.97
2023-01-21T18:36:48.253Z,102677.19
2023-01-21T18:39:18.530Z,102664.75
2023-01-21T18:41:45.973Z,102660.53
2023-01-21T18:44:12.958Z,102671.97
2023-01-21T18:46:42.231Z,102672.97
2023-01-21T18:49:14.110Z,102677.06
2023-01-21T18:51:40.505Z,102680.84
2023-01-21T18:54:07.720Z,102677.06
2023-01-21T18:56:35.213Z,102675.22
2023-01-21T18:59:01.733Z,102674.38
2023-01-21T19:01:28.287Z,102669.03
2023-01-21T19:03:55.168Z,102672.66
2023-01-21T19:06:23.602Z,102669.84
2023-01-21T19:08:49.970Z,102663.66
2023-01-21T19:11:16.834Z,102663.94
2023-01-21T19:13:43.349Z,102664.22
2023-01-21T19:16:20.556Z,102659.84
2023-01-21T19:18:47.124Z,102659.72
2023-01-21T19:21:13.617Z,102657.44
2023-01-21T19:23:40.395Z,102654.22
2023-01-21T19:26:08.575Z,102647.84
2023-01-21T19:28:35.290Z,102655.31
2023-01-21T19:31:01.761Z,102655.91
2023-01-21T19:33:28.280Z,102651.25
2023-01-21T19:36:02.510Z,102658.56
2023-01-21T19:38:29.285Z,102644.47
2023-01-21T19:40:56.047Z,102652.09
2023-01-21T19:43:23.265Z,102654.63
2023-01-21T19:45:51.564Z,102647.72
2023-01-21T19:48:20.521Z,102641.38
2023-01-21T19:50:47.075Z,102639.38
2023-01-21T19:53:15.539Z,102638.16
2023-01-21T19:55:43.166Z,102637.44
2023-01-21T19:58:19.413Z,102636.88
2023-01-21T20:00:51.062Z,102647.84
2023-01-21T20:03:19.096Z,102641.09
2023-01-21T20:05:47.925Z,102638.56
2023-01-21T20:08:23.820Z,102643.06
2023-01-21T20:10:50.311Z,102650.09
2023-01-21T20:13:17.933Z,102652.66
2023-01-21T20:15:47.405Z,102655.19
2023-01-21T20:18:25.578Z,102647.44
2023-01-21T20:20:53.950Z,102641.94
2023-01-21T20:23:22.187Z,102636.88
2023-01-21T20:25:51.676Z,102639.38
2023-01-21T20:28:27.371Z,102633.91
2023-01-21T20:30:55.983Z,102641.09
2023-01-21T20:33:23.668Z,102636.56
2023-01-21T20:35:53.307Z,102627.38
2023-01-21T20:38:25.617Z,102618.78
2023-01-21T20:40:52.054Z,102626.53
2023-01-21T20:43:20.302Z,102629.22
2023-01-21T20:45:49.234Z,102622.00
2023-01-21T20:48:33.542Z,102616.84
2023-01-21T20:51:00.283Z,102634.19
2023-01-21T20:53:27.811Z,102631.50
2023-01-21T20:55:55.622Z,102630.09
2023-01-21T20:58:22.261Z,102634.59
2023-01-21T21:00:49.128Z,102627.44
2023-01-21T21:03:17.959Z,102622.47
2023-01-21T21:05:48.726Z,102623.31
2023-01-21T21:08:19.921Z,102628.13
2023-01-21T21:10:47.133Z,102617.13
2023-01-21T21:13:14.364Z,102598.50
2023-01-21T21:15:42.559Z,102611.50
2023-01-21T21:18:13.715Z,102609.78
2023-01-21T21:20:40.982Z,102612.91
2023-01-21T21:23:09.683Z,102585.56
2023-01-21T21:25:41.397Z,102593.72
2023-01-21T21:28:10.411Z,102602.75
2023-01-21T21:30:37.002Z,102599.38
2023-01-21T21:33:03.638Z,102607.28
2023-01-21T21:35:32.554Z,102599.09
2023-01-21T21:38:03.637Z,102601.06
2023-01-21T21:40:30.280Z,102590.78
2023-01-21T21:43:16.467Z,102599.66
2023-01-21T21:46:02.153Z,102597.97
2023-01-21T21:48:38.290Z,102598.25
2023-01-21T21:51:31.947Z,102590.66
2023-01-21T21:53:58.257Z,102594.31
2023-01-21T21:56:24.693Z,102593.59
2023-01-21T21:58:51.418Z,102585.56
2023-01-21T22:01:25.790Z,102590.66
2023-01-21T22:03:52.620Z,102590.09
2023-01-21T22:06:21.096Z,102586.84
2023-01-21T22:08:48.264Z,102586.25
2023-01-21T22:11:17.122Z,102588.09
2023-01-21T22:13:44.733Z,102595.88
2023-01-21T22:16:13.735Z,102605.13
2023-01-21T22:18:40.405Z,102596.25
2023-01-21T22:21:11.549Z,102586.38
2023-01-21T22:23:38.690Z,102591.03
2023-01-21T22:26:07.777Z,102587.25
2023-01-21T22:28:35.247Z,102593.72
2023-01-21T22:31:06.808Z,102583.19
2023-01-21T22:33:34.411Z,102580.63
2023-01-21T22:36:06.235Z,102588.66
2023-01-21T22:38:34.094Z,102592.31
2023-01-21T22:41:01.157Z,102584.41
2023-01-21T22:43:29.041Z,102588.78
2023-01-21T22:45:56.699Z,102588.09
2023-01-21T22:48:23.919Z,102585.53
2023-01-21T22:50:59.665Z,102582.44
2023-01-21T22:53:28.001Z,102586.94
2023-01-21T22:56:01.362Z,102579.63
2023-01-21T22:58:30.431Z,102574.28
2023-01-21T23:00:58.107Z,102579.94
2023-01-21T23:03:25.473Z,102588.66
2023-01-21T23:05:52.464Z,102588.38
2023-01-21T23:08:19.840Z,102584.41
2023-01-21T23:10:47.233Z,102584.72
2023-01-21T23:13:15.011Z,102584.16
2023-01-21T23:15:46.124Z,102585.69
2023-01-21T23:18:14.787Z,102580.75
2023-01-21T23:20:42.997Z,102577.97
2023-01-21T23:23:11.493Z,102570.50
2023-01-21T23:25:42.166Z,102568.53
2023-01-21T23:28:08.628Z,102563.28
2023-01-21T23:30:35.427Z,102564.25
2023-01-21T23:33:01.882Z,102553.84
2023-01-21T23:35:28.721Z,102553.53
2023-01-21T23:37:55.269Z,102543.81
2023-01-21T23:40:22.025Z,102545.91
2023-01-21T23:42:49.488Z,102541.22
2023-01-21T23:45:16.739Z,102537.84
2023-01-21T23:47:43.514Z,102537.31
2023-01-21T23:50:10.417Z,102537.16
2023-01-21T23:52:40.042Z,102534.91
2023-01-21T23:55:09.605Z,102529.41
2023-01-21T23:57:36.535Z,102539.84
